createdAt,value
2022-08-25T00:00:54.492Z,5.60
2022-08-25T00:02:56.769Z,4.68
2022-08-25T00:04:59.488Z,4.88
2022-08-25T00:07:03.410Z,5.15
2022-08-25T00:09:05.572Z,5.00
2022-08-25T00:11:08.706Z,5.38
2022-08-25T00:13:10.423Z,4.80
2022-08-25T00:15:12.257Z,6.07
2022-08-25T00:17:13.896Z,5.85
2022-08-25T00:19:18.042Z,5.57
2022-08-25T00:21:20.268Z,5.38
2022-08-25T00:23:21.908Z,5.30
2022-08-25T00:25:23.573Z,5.53
2022-08-25T00:27:25.917Z,5.85
2022-08-25T00:29:28.103Z,5.47
2022-08-25T00:31:38.581Z,4.93
2022-08-25T00:33:40.955Z,5.13
2022-08-25T00:35:42.555Z,5.70
2022-08-25T00:37:44.127Z,5.85
2022-08-25T00:39:46.187Z,5.53
2022-08-25T00:41:49.324Z,5.80
2022-08-25T00:43:56.510Z,5.72
2022-08-25T00:45:58.338Z,6.38
2022-08-25T00:48:00.884Z,5.80
2022-08-25T00:50:05.577Z,6.65
2022-08-25T00:52:10.687Z,6.15
2022-08-25T00:54:14.847Z,6.10
2022-08-25T00:56:17.466Z,6.32
2022-08-25T00:58:25.623Z,5.90
2022-08-25T01:00:30.163Z,5.78
2022-08-25T01:02:32.047Z,6.57
2022-08-25T01:04:34.495Z,5.97
2022-08-25T01:06:37.195Z,6.15
2022-08-25T01:08:38.948Z,6.28
2022-08-25T01:10:42.597Z,6.70
2022-08-25T01:12:44.305Z,6.38
2022-08-25T01:14:46.763Z,6.18
2022-08-25T01:16:51.131Z,6.45
2022-08-25T01:19:00.428Z,6.13
2022-08-25T01:21:02.055Z,7.10
2022-08-25T01:23:04.159Z,7.03
2022-08-25T01:25:13.322Z,7.20
2022-08-25T01:27:14.905Z,6.95
2022-08-25T01:29:22.870Z,7.35
2022-08-25T01:31:24.605Z,6.85
2022-08-25T01:33:26.434Z,7.18
2022-08-25T01:35:28.211Z,7.53
2022-08-25T01:37:29.914Z,6.63
2022-08-25T01:39:33.952Z,7.32
2022-08-25T01:41:51.540Z,6.78
2022-08-25T01:43:53.313Z,8.02
2022-08-25T01:45:54.937Z,7.97
2022-08-25T01:47:57.019Z,7.57
2022-08-25T01:49:58.542Z,7.28
2022-08-25T01:52:20.463Z,8.13
2022-08-25T01:54:23.698Z,7.85
2022-08-25T01:56:25.275Z,8.63
2022-08-25T01:58:32.409Z,8.15
2022-08-25T02:00:34.167Z,7.38
2022-08-25T02:02:35.821Z,8.07
2022-08-25T02:04:37.953Z,8.75
2022-08-25T02:06:40.950Z,9.20
2022-08-25T02:08:43.543Z,8.93
2022-08-25T02:10:46.360Z,8.98
2022-08-25T02:12:48.360Z,8.73
2022-08-25T02:14:49.953Z,9.43
2022-08-25T02:16:52.557Z,8.43
2022-08-25T02:18:55.691Z,9.27
2022-08-25T02:20:57.226Z,9.50
2022-08-25T02:22:58.907Z,9.80
2022-08-25T02:25:01.352Z,8.93
2022-08-25T02:27:04.111Z,8.65
2022-08-25T02:29:07.318Z,9.02
2022-08-25T02:31:09.301Z,9.32
2022-08-25T02:33:11.319Z,9.35
2022-08-25T02:35:13.287Z,9.20
2022-08-25T02:37:15.323Z,9.98
2022-08-25T02:39:17.141Z,9.75
2022-08-25T02:41:20.314Z,9.63
2022-08-25T02:43:22.179Z,9.40
2022-08-25T02:45:24.023Z,9.65
2022-08-25T02:47:27.149Z,10.30
2022-08-25T02:49:29.133Z,9.90
2022-08-25T02:51:31.992Z,10.75
2022-08-25T02:53:34.109Z,10.27
2022-08-25T02:55:36.052Z,10.73
2022-08-25T02:57:37.677Z,10.25
2022-08-25T02:59:39.471Z,9.82
2022-08-25T03:01:41.291Z,10.73
2022-08-25T03:03:44.396Z,10.30
2022-08-25T03:05:46.494Z,11.20
2022-08-25T03:07:48.267Z,10.55
2022-08-25T03:09:50.246Z,9.88
2022-08-25T03:11:51.808Z,9.82
2022-08-25T03:13:54.181Z,11.35
2022-08-25T03:15:55.815Z,11.93
2022-08-25T03:17:58.676Z,10.88
2022-08-25T03:20:01.837Z,10.30
2022-08-25T03:22:03.685Z,10.35
2022-08-25T03:24:06.190Z,10.93
2022-08-25T03:26:27.088Z,11.07
2022-08-25T03:28:31.277Z,10.30
2022-08-25T03:30:33.024Z,10.02
2022-08-25T03:32:34.936Z,10.40
2022-08-25T03:34:36.570Z,10.30
2022-08-25T03:36:38.347Z,11.25
2022-08-25T03:38:40.395Z,10.45
2022-08-25T03:40:42.067Z,10.60
2022-08-25T03:42:45.202Z,11.10
2022-08-25T03:44:47.409Z,10.45
2022-08-25T03:46:51.069Z,10.65
2022-08-25T03:48:52.800Z,10.38
2022-08-25T03:50:54.819Z,10.80
2022-08-25T03:52:56.759Z,10.93
2022-08-25T03:54:58.392Z,10.93
2022-08-25T03:57:00.238Z,12.07
2022-08-25T03:59:01.987Z,11.43
2022-08-25T04:01:04.215Z,11.45
2022-08-25T04:03:06.432Z,10.85
2022-08-25T04:05:08.489Z,10.90
2022-08-25T04:07:10.445Z,11.95
2022-08-25T04:09:12.629Z,11.00
2022-08-25T04:11:15.670Z,11.23
2022-08-25T04:13:18.354Z,12.38
2022-08-25T04:17:22.739Z,10.10
2022-08-25T04:19:24.278Z,11.55
2022-08-25T04:21:26.943Z,10.90
2022-08-25T04:23:28.489Z,11.32
2022-08-25T04:25:30.115Z,11.55
2022-08-25T04:27:31.925Z,11.77
2022-08-25T04:29:34.091Z,11.93
2022-08-25T04:31:36.394Z,12.43
2022-08-25T04:33:38.513Z,10.82
2022-08-25T04:35:41.243Z,12.18
2022-08-25T04:37:43.004Z,13.20
2022-08-25T04:39:45.058Z,13.73
2022-08-25T04:41:50.039Z,11.27
2022-08-25T04:43:51.963Z,13.18
2022-08-25T04:45:54.032Z,12.75
2022-08-25T04:48:00.757Z,12.15
2022-08-25T04:50:02.821Z,12.27
2022-08-25T04:52:04.687Z,12.23
2022-08-25T04:54:10.812Z,10.98
2022-08-25T04:56:14.575Z,11.68
2022-08-25T04:58:16.829Z,11.18
2022-08-25T05:00:18.454Z,11.52
2022-08-25T05:02:20.579Z,11.50
2022-08-25T05:04:28.032Z,12.00
2022-08-25T05:06:31.700Z,13.43
2022-08-25T05:08:33.506Z,10.90
2022-08-25T05:10:39.133Z,11.13
2022-08-25T05:12:40.735Z,12.43
2022-08-25T05:14:42.451Z,11.85
2022-08-25T05:16:44.247Z,11.55
2022-08-25T05:18:46.233Z,11.70
2022-08-25T05:20:48.023Z,11.43
2022-08-25T05:22:49.781Z,11.75
2022-08-25T05:24:51.905Z,11.52
2022-08-25T05:26:53.660Z,12.55
2022-08-25T05:28:56.466Z,11.65
2022-08-25T05:32:59.542Z,11.15
2022-08-25T05:35:01.501Z,11.57
2022-08-25T05:37:04.531Z,11.25
2022-08-25T05:39:06.325Z,11.68
2022-08-25T05:41:10.523Z,11.65
2022-08-25T05:43:14.598Z,10.27
2022-08-25T05:45:18.576Z,11.60
2022-08-25T05:47:22.579Z,11.65
2022-08-25T05:49:24.148Z,11.30
2022-08-25T05:51:26.748Z,10.80
2022-08-25T05:53:29.857Z,11.70
2022-08-25T05:55:35.782Z,11.07
2022-08-25T05:57:38.041Z,10.95
2022-08-25T05:59:40.478Z,10.77
2022-08-25T06:02:00.943Z,10.75
2022-08-25T06:04:03.142Z,10.95
2022-08-25T06:08:07.584Z,10.15
2022-08-25T06:10:13.420Z,10.60
2022-08-25T06:12:15.818Z,11.10
2022-08-25T06:14:17.568Z,10.30
2022-08-25T06:16:19.370Z,11.05
2022-08-25T06:18:21.638Z,11.52
2022-08-25T06:20:25.370Z,11.10
2022-08-25T06:22:27.831Z,10.25
2022-08-25T06:24:29.708Z,11.38
2022-08-25T06:26:31.856Z,10.27
2022-08-25T06:28:33.480Z,11.07
2022-08-25T06:30:35.438Z,10.98
2022-08-25T06:32:39.426Z,10.93
2022-08-25T06:34:41.158Z,11.43
2022-08-25T06:36:43.597Z,10.70
2022-08-25T06:38:53.959Z,10.98
2022-08-25T06:40:57.114Z,11.63
2022-08-25T06:42:59.045Z,11.68
2022-08-25T06:45:01.376Z,10.82
2022-08-25T06:49:06.180Z,11.23
2022-08-25T06:51:08.799Z,11.38
2022-08-25T06:53:15.507Z,11.43
2022-08-25T06:55:17.356Z,12.98
2022-08-25T06:57:19.556Z,13.75
2022-08-25T06:59:21.920Z,12.85
2022-08-25T07:01:26.911Z,14.43
2022-08-25T07:03:28.938Z,12.20
2022-08-25T07:05:42.931Z,13.15
2022-08-25T07:07:46.446Z,11.10
2022-08-25T07:09:48.284Z,14.10
2022-08-25T07:11:49.903Z,11.27
2022-08-25T07:13:52.218Z,11.07
2022-08-25T07:17:57.485Z,12.13
2022-08-25T07:19:59.595Z,13.65
2022-08-25T07:22:01.484Z,11.68
2022-08-25T07:24:10.769Z,11.60
2022-08-25T07:26:36.238Z,10.38
2022-08-25T07:28:36.132Z,11.30
2022-08-25T07:30:37.914Z,11.23
2022-08-25T07:32:42.224Z,11.07
2022-08-25T07:35:03.746Z,11.98
2022-08-25T07:37:05.779Z,11.05
2022-08-25T07:39:08.208Z,10.45
2022-08-25T07:41:09.774Z,11.23
2022-08-25T07:43:11.435Z,11.43
2022-08-25T07:45:13.774Z,11.60
2022-08-25T07:47:17.406Z,11.32
2022-08-25T07:49:26.065Z,10.95
2022-08-25T07:51:28.403Z,11.80
2022-08-25T07:53:29.943Z,11.43
2022-08-25T07:55:32.134Z,10.73
2022-08-25T07:57:34.371Z,10.70
2022-08-25T07:59:40.388Z,11.35
2022-08-25T08:01:42.803Z,10.50
2022-08-25T08:03:50.474Z,10.82
2022-08-25T08:05:56.413Z,10.65
2022-08-25T08:07:58.214Z,11.02
2022-08-25T08:10:32.827Z,11.38
2022-08-25T08:12:21.868Z,11.15
2022-08-25T08:14:24.414Z,11.50
2022-08-25T08:16:28.547Z,11.25
2022-08-25T08:18:30.335Z,10.77
2022-08-25T08:20:42.326Z,11.18
2022-08-25T08:22:45.310Z,10.77
2022-08-25T08:24:54.415Z,10.85
2022-08-25T08:26:59.302Z,10.90
2022-08-25T08:29:01.788Z,11.48
2022-08-25T08:33:10.034Z,11.02
2022-08-25T08:35:15.317Z,11.90
2022-08-25T08:37:17.063Z,10.20
2022-08-25T08:39:18.636Z,10.63
2022-08-25T08:42:10.869Z,10.43
2022-08-25T08:44:16.764Z,10.80
2022-08-25T08:46:19.044Z,10.30
2022-08-25T08:48:23.982Z,10.13
2022-08-25T08:50:44.009Z,10.27
2022-08-25T08:52:48.826Z,9.43
2022-08-25T08:54:56.863Z,9.88
2022-08-25T08:57:04.237Z,9.45
2022-08-25T08:59:09.928Z,9.60
2022-08-25T09:01:16.147Z,9.32
2022-08-25T09:03:24.079Z,10.30
2022-08-25T09:05:28.149Z,11.15
2022-08-25T09:07:36.935Z,9.35
2022-08-25T09:09:44.190Z,11.00
2022-08-25T09:12:08.648Z,11.27
2022-08-25T09:14:32.984Z,11.55
2022-08-25T09:16:57.415Z,10.10
2022-08-25T09:19:01.824Z,10.38
2022-08-25T09:21:15.735Z,11.10
2022-08-25T09:23:21.541Z,10.57
2022-08-25T09:28:00.150Z,10.00
2022-08-25T09:30:21.191Z,10.13
2022-08-25T09:32:34.868Z,9.93
2022-08-25T09:34:38.003Z,10.52
2022-08-25T09:36:39.658Z,9.73
2022-08-25T09:38:41.398Z,9.77
2022-08-25T09:40:45.156Z,9.15
2022-08-25T09:42:51.463Z,8.57
2022-08-25T09:44:59.384Z,8.90
2022-08-25T09:47:22.547Z,9.52
2022-08-25T09:49:30.600Z,8.95
2022-08-25T09:51:42.580Z,9.20
2022-08-25T09:54:10.759Z,9.45
2022-08-25T09:56:12.652Z,9.45
2022-08-25T09:58:22.266Z,8.70
2022-08-25T10:00:27.830Z,9.48
2022-08-25T10:02:29.889Z,8.85
2022-08-25T10:04:40.096Z,9.23
2022-08-25T10:06:47.269Z,9.07
2022-08-25T10:08:48.808Z,8.68
2022-08-25T10:10:54.104Z,8.90
2022-08-25T10:13:01.038Z,8.85
2022-08-25T10:15:29.085Z,8.63
2022-08-25T10:17:33.491Z,7.63
2022-08-25T10:19:35.613Z,7.78
2022-08-25T10:21:40.159Z,6.93
2022-08-25T10:23:46.302Z,7.25
2022-08-25T10:25:59.074Z,8.25
2022-08-25T10:28:11.121Z,7.10
2022-08-25T10:30:33.377Z,6.93
2022-08-25T10:32:54.079Z,6.32
2022-08-25T10:34:59.488Z,6.45
2022-08-25T10:37:01.380Z,6.65
2022-08-25T10:39:04.373Z,6.60
2022-08-25T10:41:28.937Z,5.93
2022-08-25T10:43:45.359Z,4.95
2022-08-25T10:45:54.177Z,4.28
2022-08-25T10:47:57.111Z,5.30
2022-08-25T10:50:04.015Z,4.85
2022-08-25T10:52:16.793Z,5.22
2022-08-25T10:54:21.099Z,5.45
2022-08-25T10:56:43.182Z,5.20
2022-08-25T10:58:57.086Z,4.85
2022-08-25T11:01:11.685Z,5.15
2022-08-25T11:03:27.440Z,4.97
2022-08-25T11:05:43.244Z,4.57
2022-08-25T11:07:50.620Z,4.63
2022-08-25T11:09:53.737Z,5.18
2022-08-25T11:11:57.674Z,4.68
2022-08-25T11:14:00.110Z,5.22
2022-08-25T11:16:17.244Z,4.60
2022-08-25T11:18:20.459Z,5.18
2022-08-25T11:20:43.551Z,5.13
2022-08-25T11:22:48.658Z,5.40
2022-08-25T11:25:11.251Z,5.03
2022-08-25T11:27:17.658Z,5.53
2022-08-25T11:29:26.226Z,4.68
2022-08-25T11:31:28.574Z,6.03
2022-08-25T11:33:30.755Z,5.15
2022-08-25T11:35:35.654Z,5.57
2022-08-25T11:37:58.886Z,5.40
2022-08-25T11:40:00.552Z,5.20
2022-08-25T11:42:02.183Z,5.00
2022-08-25T11:44:04.465Z,4.93
2022-08-25T11:46:33.857Z,5.13
2022-08-25T11:48:47.183Z,5.25
2022-08-25T11:50:58.084Z,5.50
2022-08-25T11:53:19.328Z,4.43
2022-08-25T11:55:34.851Z,5.78
2022-08-25T11:57:37.548Z,4.90
2022-08-25T12:01:40.622Z,4.65
2022-08-25T12:03:42.971Z,4.75
2022-08-25T12:05:51.954Z,4.57
2022-08-25T12:08:13.527Z,3.90
2022-08-25T12:10:25.755Z,4.32
2022-08-25T12:12:50.433Z,4.60
2022-08-25T12:14:52.109Z,4.65
2022-08-25T12:16:54.840Z,4.85
2022-08-25T12:19:16.643Z,4.65
2022-08-25T12:21:29.778Z,4.22
2022-08-25T12:23:36.273Z,4.97
2022-08-25T12:25:39.338Z,4.70
2022-08-25T12:27:48.072Z,4.82
2022-08-25T12:29:52.367Z,4.93
2022-08-25T12:31:59.222Z,4.50
2022-08-25T12:34:24.340Z,4.35
2022-08-25T12:36:31.233Z,4.15
2022-08-25T12:38:42.523Z,4.45
2022-08-25T12:40:45.752Z,4.13
2022-08-25T12:43:00.423Z,4.05
2022-08-25T12:45:15.702Z,4.03
2022-08-25T12:47:23.535Z,4.40
2022-08-25T12:49:30.167Z,4.70
2022-08-25T12:51:53.405Z,4.90
2022-08-25T12:53:55.034Z,4.32
2022-08-25T12:56:01.602Z,4.80
2022-08-25T12:58:04.391Z,4.22
2022-08-25T13:02:52.749Z,4.53
2022-08-25T13:05:00.397Z,5.03
2022-08-25T13:07:06.720Z,4.60
2022-08-25T13:09:18.266Z,4.40
2022-08-25T13:11:20.241Z,4.00
2022-08-25T13:13:31.303Z,4.05
2022-08-25T13:15:48.733Z,4.57
2022-08-25T13:18:12.299Z,4.18
2022-08-25T13:20:25.876Z,4.07
2022-08-25T13:22:27.766Z,4.40
2022-08-25T13:24:40.424Z,4.60
2022-08-25T13:26:48.352Z,4.30
2022-08-25T13:29:01.210Z,3.78
2022-08-25T13:31:05.746Z,4.30
2022-08-25T13:33:21.921Z,4.03
2022-08-25T13:35:32.209Z,4.10
2022-08-25T13:37:34.452Z,4.90
2022-08-25T13:39:56.468Z,4.57
2022-08-25T13:42:00.926Z,4.38
2022-08-25T13:44:06.619Z,4.25
2022-08-25T13:46:18.694Z,4.45
2022-08-25T13:48:51.471Z,4.30
2022-08-25T13:51:06.225Z,4.40
2022-08-25T13:53:16.893Z,4.07
2022-08-25T13:55:27.375Z,4.63
2022-08-25T13:57:30.586Z,4.45
2022-08-25T13:59:40.025Z,4.13
2022-08-25T14:01:47.744Z,3.60
2022-08-25T14:03:52.039Z,4.40
2022-08-25T14:06:04.739Z,4.85
2022-08-25T14:10:41.231Z,4.55
2022-08-25T14:12:46.400Z,3.65
2022-08-25T14:14:57.415Z,4.35
2022-08-25T14:17:16.412Z,4.40
2022-08-25T14:19:25.514Z,4.38
2022-08-25T14:21:28.879Z,4.53
2022-08-25T14:23:30.733Z,4.68
2022-08-25T14:25:32.916Z,4.63
2022-08-25T14:27:38.917Z,4.85
2022-08-25T14:29:53.112Z,4.30
2022-08-25T14:31:55.383Z,4.20
2022-08-25T14:34:00.253Z,4.22
2022-08-25T14:36:04.731Z,4.45
2022-08-25T14:38:11.024Z,4.65
2022-08-25T14:40:15.460Z,4.45
2022-08-25T14:42:17.153Z,4.32
2022-08-25T14:44:19.255Z,4.40
2022-08-25T14:46:26.002Z,4.70
2022-08-25T14:48:31.442Z,4.57
2022-08-25T14:50:33.611Z,4.35
2022-08-25T14:52:35.544Z,4.75
2022-08-25T14:54:37.851Z,4.60
2022-08-25T14:56:43.137Z,4.60
2022-08-25T14:58:48.435Z,4.70
2022-08-25T15:00:53.006Z,4.40
2022-08-25T15:02:54.837Z,4.38
2022-08-25T15:04:58.042Z,4.32
2022-08-25T15:07:01.035Z,4.82
2022-08-25T15:09:08.192Z,4.55
2022-08-25T15:11:10.204Z,4.03
2022-08-25T15:13:11.806Z,4.80
2022-08-25T15:15:13.428Z,4.57
2022-08-25T15:17:15.591Z,4.10
2022-08-25T15:19:18.494Z,4.03
2022-08-25T15:21:21.492Z,4.75
2022-08-25T15:23:23.406Z,4.47
2022-08-25T15:25:25.287Z,4.70
2022-08-25T15:27:26.972Z,4.60
2022-08-25T15:29:34.759Z,3.90
2022-08-25T15:31:37.123Z,4.25
2022-08-25T15:33:39.192Z,3.85
2022-08-25T15:35:41.550Z,4.43
2022-08-25T15:37:46.993Z,4.20
2022-08-25T15:39:49.235Z,4.38
2022-08-25T15:41:54.063Z,3.97
2022-08-25T15:43:57.908Z,4.25
2022-08-25T15:45:59.995Z,3.75
2022-08-25T15:48:02.016Z,3.50
2022-08-25T15:50:07.315Z,4.20
2022-08-25T15:52:09.694Z,3.90
2022-08-25T15:56:26.679Z,3.80
2022-08-25T15:58:28.706Z,4.35
2022-08-25T16:00:31.827Z,4.07
2022-08-25T16:02:34.723Z,4.40
2022-08-25T16:06:38.751Z,4.28
2022-08-25T16:08:40.906Z,4.38
2022-08-25T16:10:44.251Z,3.92
2022-08-25T16:12:46.419Z,3.78
2022-08-25T16:14:48.067Z,4.38
2022-08-25T16:16:50.063Z,4.05
2022-08-25T16:18:52.218Z,4.82
2022-08-25T16:20:54.021Z,4.40
2022-08-25T16:22:56.273Z,3.97
2022-08-25T16:27:11.614Z,3.90
2022-08-25T16:29:15.483Z,4.43
2022-08-25T16:31:19.007Z,4.57
2022-08-25T16:33:21.183Z,4.15
2022-08-25T16:35:24.966Z,4.45
2022-08-25T16:37:26.932Z,4.32
2022-08-25T16:39:28.880Z,4.57
2022-08-25T16:41:34.231Z,3.83
2022-08-25T16:43:38.285Z,4.35
2022-08-25T16:45:40.236Z,3.65
2022-08-25T16:47:43.494Z,4.32
2022-08-25T16:49:46.350Z,4.47
2022-08-25T16:51:48.306Z,3.97
2022-08-25T16:54:22.043Z,4.72
2022-08-25T16:56:28.180Z,4.63
2022-08-25T16:58:30.285Z,4.43
2022-08-25T17:00:32.181Z,7.90
2022-08-25T17:02:34.267Z,6.32
2022-08-25T17:06:39.863Z,4.18
2022-08-25T17:08:41.853Z,6.65
2022-08-25T17:10:45.807Z,5.18
2022-08-25T17:12:47.919Z,4.32
2022-08-25T17:16:55.101Z,5.32
2022-08-25T17:18:58.128Z,5.00
2022-08-25T17:21:04.200Z,5.47
2022-08-25T17:23:12.013Z,4.80
2022-08-25T17:25:14.962Z,4.80
2022-08-25T17:27:18.414Z,5.53
2022-08-25T17:29:20.630Z,4.47
2022-08-25T17:31:23.015Z,5.10
2022-08-25T17:33:26.563Z,4.68
2022-08-25T17:35:30.003Z,5.30
2022-08-25T17:37:31.708Z,4.57
2022-08-25T17:39:34.021Z,4.68
2022-08-25T17:41:37.766Z,5.07
2022-08-25T17:43:41.239Z,4.65
2022-08-25T17:45:43.160Z,5.20
2022-08-25T17:47:45.078Z,5.47
2022-08-25T17:49:46.732Z,4.97
2022-08-25T17:51:48.699Z,5.28
2022-08-25T17:53:52.766Z,4.95
2022-08-25T17:56:02.584Z,5.57
2022-08-25T17:58:04.500Z,4.85
2022-08-25T18:00:12.942Z,4.83
2022-08-25T18:02:15.360Z,4.60
2022-08-25T18:04:19.557Z,4.70
2022-08-25T18:06:22.051Z,4.78
2022-08-25T18:08:32.197Z,5.35
2022-08-25T18:10:38.286Z,4.80
2022-08-25T18:12:40.026Z,4.28
2022-08-25T18:14:41.659Z,4.95
2022-08-25T18:16:47.999Z,4.75
2022-08-25T18:18:50.984Z,5.50
2022-08-25T18:20:53.166Z,5.00
2022-08-25T18:22:57.533Z,4.60
2022-08-25T18:25:01.375Z,4.72
2022-08-25T18:27:05.459Z,5.18
2022-08-25T18:29:12.159Z,4.75
2022-08-25T18:31:14.095Z,4.68
2022-08-25T18:33:16.011Z,5.57
2022-08-25T18:35:21.352Z,4.68
2022-08-25T18:37:43.017Z,5.72
2022-08-25T18:40:04.030Z,4.90
2022-08-25T18:42:08.800Z,6.03
2022-08-25T18:44:11.049Z,15.32
2022-08-25T18:46:12.897Z,5.60
2022-08-25T18:48:15.637Z,4.97
2022-08-25T18:50:18.118Z,5.82
2022-08-25T18:52:23.866Z,5.03
2022-08-25T18:54:25.683Z,5.32
2022-08-25T18:56:28.513Z,5.90
2022-08-25T18:58:30.147Z,5.22
2022-08-25T19:00:32.619Z,5.27
2022-08-25T19:02:34.323Z,5.25
2022-08-25T19:04:36.534Z,4.90
2022-08-25T19:06:38.930Z,5.00
2022-08-25T19:08:45.582Z,5.03
2022-08-25T19:10:50.187Z,5.40
2022-08-25T19:12:54.007Z,5.57
2022-08-25T19:14:58.752Z,5.22
2022-08-25T19:17:01.607Z,7.10
2022-08-25T19:19:06.455Z,5.32
2022-08-25T19:21:08.666Z,5.05
2022-08-25T19:23:11.163Z,5.05
2022-08-25T19:27:15.147Z,4.85
2022-08-25T19:29:17.707Z,4.90
2022-08-25T19:31:21.633Z,5.38
2022-08-25T19:33:42.795Z,5.22
2022-08-25T19:35:47.531Z,5.10
2022-08-25T19:37:51.203Z,4.90
2022-08-25T19:41:57.653Z,5.43
2022-08-25T19:44:02.477Z,5.33
2022-08-25T19:46:05.202Z,4.53
2022-08-25T19:48:07.784Z,5.38
2022-08-25T19:50:11.152Z,5.28
2022-08-25T19:52:24.784Z,5.45
2022-08-25T19:54:31.806Z,5.47
2022-08-25T19:56:35.199Z,5.30
2022-08-25T19:58:38.113Z,4.88
2022-08-25T20:00:42.549Z,4.75
2022-08-25T20:02:44.848Z,5.23
2022-08-25T20:04:49.917Z,5.78
2022-08-25T20:06:52.667Z,5.35
2022-08-25T20:09:00.606Z,5.57
2022-08-25T20:11:03.067Z,5.57
2022-08-25T20:13:05.456Z,6.25
2022-08-25T20:15:09.216Z,5.18
2022-08-25T20:17:23.200Z,5.60
2022-08-25T20:19:26.631Z,15.85
2022-08-25T20:21:28.546Z,5.60
2022-08-25T20:23:51.363Z,5.65
2022-08-25T20:25:53.511Z,5.75
2022-08-25T20:27:55.952Z,6.07
2022-08-25T20:29:58.087Z,5.38
2022-08-25T20:31:59.705Z,5.50
2022-08-25T20:34:02.878Z,5.53
2022-08-25T20:36:04.982Z,5.38
2022-08-25T20:38:07.395Z,5.80
2022-08-25T20:40:10.024Z,5.53
2022-08-25T20:42:11.759Z,4.85
2022-08-25T20:44:13.422Z,4.80
2022-08-25T20:46:16.277Z,5.15
2022-08-25T20:48:18.454Z,5.93
2022-08-25T20:50:20.416Z,5.55
2022-08-25T20:52:22.327Z,6.43
2022-08-25T20:54:25.616Z,5.78
2022-08-25T20:56:30.436Z,5.05
2022-08-25T20:58:32.247Z,5.43
2022-08-25T21:00:34.103Z,6.22
2022-08-25T21:02:37.976Z,7.13
2022-08-25T21:04:39.999Z,5.65
2022-08-25T21:06:52.141Z,5.53
2022-08-25T21:08:53.767Z,5.57
2022-08-25T21:10:56.067Z,5.70
2022-08-25T21:12:57.722Z,5.60
2022-08-25T21:14:59.341Z,5.85
2022-08-25T21:17:01.235Z,6.43
2022-08-25T21:19:04.031Z,5.57
2022-08-25T21:21:14.495Z,5.65
2022-08-25T21:23:30.945Z,5.60
2022-08-25T21:25:52.906Z,5.93
2022-08-25T21:27:54.604Z,6.07
2022-08-25T21:29:56.391Z,5.18
2022-08-25T21:31:59.689Z,5.43
2022-08-25T21:34:01.936Z,5.63
2022-08-25T21:36:04.791Z,5.30
2022-08-25T21:38:06.530Z,5.75
2022-08-25T21:40:08.765Z,6.05
2022-08-25T21:44:19.116Z,5.90
2022-08-25T21:46:22.507Z,6.22
2022-08-25T21:48:26.092Z,5.53
2022-08-25T21:50:28.289Z,6.07
2022-08-25T21:52:29.952Z,5.50
2022-08-25T21:54:32.257Z,5.93
2022-08-25T21:56:33.842Z,4.97
2022-08-25T21:58:36.202Z,5.47
2022-08-25T22:00:38.170Z,6.13
2022-08-25T22:04:47.062Z,5.32
2022-08-25T22:06:50.422Z,5.50
2022-08-25T22:08:52.115Z,5.72
2022-08-25T22:10:55.666Z,6.13
2022-08-25T22:12:57.462Z,6.63
2022-08-25T22:14:59.388Z,6.35
2022-08-25T22:17:01.014Z,5.93
2022-08-25T22:19:03.697Z,5.67
2022-08-25T22:21:07.327Z,5.47
2022-08-25T22:23:11.284Z,5.75
2022-08-25T22:25:23.527Z,6.68
2022-08-25T22:27:26.841Z,5.97
2022-08-25T22:29:28.471Z,5.88
2022-08-25T22:31:32.372Z,6.25
2022-08-25T22:33:34.148Z,5.25
2022-08-25T22:35:36.929Z,5.45
2022-08-25T22:37:41.570Z,5.32
2022-08-25T22:39:43.667Z,5.45
2022-08-25T22:41:45.807Z,5.78
2022-08-25T22:43:47.780Z,5.60
2022-08-25T22:45:49.663Z,6.00
2022-08-25T22:47:55.382Z,5.90
2022-08-25T22:49:58.312Z,5.28
2022-08-25T22:52:02.205Z,5.32
2022-08-25T22:56:07.566Z,5.68
2022-08-25T22:58:10.142Z,5.68
2022-08-25T23:00:13.802Z,5.68
2022-08-25T23:02:15.578Z,6.18
2022-08-25T23:04:17.856Z,6.03
2022-08-25T23:06:24.623Z,6.13
2022-08-25T23:08:38.979Z,5.70
2022-08-25T23:10:47.410Z,6.07
2022-08-25T23:12:49.119Z,6.43
2022-08-25T23:14:51.415Z,6.40
2022-08-25T23:16:53.371Z,6.13
2022-08-25T23:18:57.860Z,7.05
2022-08-25T23:21:24.315Z,6.97
2022-08-25T23:23:26.418Z,7.60
2022-08-25T23:25:28.114Z,7.32
2022-08-25T23:27:30.239Z,7.75
2022-08-25T23:29:33.065Z,7.40
2022-08-25T23:33:36.351Z,7.65
2022-08-25T23:35:37.932Z,8.23
2022-08-25T23:37:40.639Z,7.38
2022-08-25T23:39:45.419Z,8.23
2022-08-25T23:41:47.243Z,8.18
2022-08-25T23:43:50.467Z,8.88
2022-08-25T23:45:52.219Z,8.20
2022-08-25T23:47:53.891Z,9.10
2022-08-25T23:49:55.577Z,7.90
2022-08-25T23:51:57.363Z,7.55
2022-08-25T23:54:00.139Z,8.07
2022-08-25T23:58:04.969Z,8.45
